Welcome, Guest
Username: Password: Remember me

Markus Ragger has 271175 registered users

Userlist

# Status Avatar Username Posts Karma Join date Last login Hits
271081 OFFLINE zixivosinty's Avatar zixivosinty 0 0 Today 22:20 Today 22:20 0
271082 OFFLINE tangelacoles48779's Avatar tangelacoles48779 0 0 Today 22:21 Today 22:21 0
271083 OFFLINE linwoodhargreaves's Avatar linwoodhargreaves 0 0 Today 22:31 Today 22:31 0
271084 OFFLINE kaqida54055652037643's Avatar kaqida54055652037643 0 0 Today 22:40 Today 22:40 0
271085 OFFLINE soonschaefer1969's Avatar soonschaefer1969 0 0 Today 22:44 Today 22:44 0
271086 OFFLINE jenifergarden43's Avatar jenifergarden43 0 0 Today 22:53 Today 22:53 0
271087 OFFLINE xbpleopoldo002885167's Avatar xbpleopoldo002885167 0 0 Today 22:59 Today 22:59 0
271088 OFFLINE ricardocalloway's Avatar ricardocalloway 0 0 Today 23:13 Today 23:13 0
271089 OFFLINE fredmccallister280's Avatar fredmccallister280 0 0 Today 23:23 Today 23:23 0
271090 OFFLINE ramonhare438496's Avatar ramonhare438496 0 0 Today 23:40 Today 23:40 0
271091 OFFLINE frederickarn37282482's Avatar frederickarn37282482 0 0 Today 00:12 Today 00:12 0
271092 OFFLINE maximoknox15464755's Avatar maximoknox15464755 0 0 Today 00:25 Today 00:25 0
271093 OFFLINE winstonkomine431707's Avatar winstonkomine431707 0 0 Today 00:38 Today 00:38 0
271094 OFFLINE colinlegg11507891's Avatar colinlegg11507891 0 0 Today 00:39 Today 00:39 0
271095 OFFLINE xktsima15897700423495's Avatar xktsima15897700423495 0 0 Today 00:40 Today 00:40 0
271096 OFFLINE berniedeweese20259's Avatar berniedeweese20259 0 0 Today 00:43 Today 00:43 0
271097 OFFLINE clinttighe8371905985's Avatar clinttighe8371905985 0 0 Today 01:03 Today 01:03 0
271098 OFFLINE delilahveilleux93's Avatar delilahveilleux93 0 0 Today 01:04 Today 01:04 0
271099 OFFLINE lawerenceparmer789's Avatar lawerenceparmer789 0 0 Today 01:16 Today 01:16 0
271100 OFFLINE олимпказиноонлайн's Avatar олимпказиноонлайн 0 0 Today 01:21 Today 01:21 0
271101 OFFLINE shay39526816276's Avatar shay39526816276 0 0 Today 01:25 Today 01:25 0
271102 OFFLINE mallorylatrobe02's Avatar mallorylatrobe02 0 0 Today 01:31 Today 01:31 0
271103 OFFLINE edithllamas5398290's Avatar edithllamas5398290 0 0 Today 01:31 Today 01:31 0
271104 OFFLINE berryscroggins280283's Avatar berryscroggins280283 0 0 Today 01:31 Today 01:31 0
271105 OFFLINE doris61h3822116965's Avatar doris61h3822116965 0 0 Today 01:37 Today 01:37 0
271106 OFFLINE eekleslie30120296's Avatar eekleslie30120296 0 0 Today 01:54 Today 01:54 0
271107 OFFLINE angleamoreton568041's Avatar angleamoreton568041 0 0 Today 02:03 Today 02:03 0
271108 OFFLINE tiffanytemple093091's Avatar tiffanytemple093091 0 0 Today 02:05 Today 02:05 0
271109 OFFLINE domingo12201004542547's Avatar domingo12201004542547 0 0 Today 02:05 Today 02:05 0
271110 OFFLINE meriditheady55388's Avatar meriditheady55388 0 0 Today 02:08 Today 02:08 0

Who Is Online

Total users online: 9 Members and 447 Guests Online
Legend:  Site Administrator Global Moderator Moderator Banned User Guest
Time to create page: 1.573 seconds
JoomlaMan